Time;durP1;ratioP1;P1;durP2;ratioP2;P2;SDS_P1;SDS_P2;PMS_P1;PMS_P2;Temp;Humidity;BMP_temperature;BMP_pressure;BME280_temperature;BME280_humidity;BME280_pressure;Samples;Min_cycle;Max_cycle;Signal;HPM_P1;HPM_P2
2022/10/15 00:01:35;;;;;;;12.90;8.20;;;14.30;99.90;;;;;;4170431;28;20242;-85
2022/10/15 00:03:37;;;;;;;14.20;8.87;;;14.30;99.90;;;;;;4165400;28;20224;-84
2022/10/15 00:05:41;;;;;;;13.17;8.17;;;14.30;99.90;;;;;;4162827;28;20250;-84
2022/10/15 00:07:43;;;;;;;13.73;8.60;;;14.40;99.90;;;;;;4171879;28;20209;-85
2022/10/15 00:09:46;;;;;;;14.37;7.90;;;14.30;99.90;;;;;;4180902;28;20232;-84
2022/10/15 00:11:48;;;;;;;14.27;8.40;;;14.20;99.90;;;;;;4154084;28;20819;-85
2022/10/15 00:13:52;;;;;;;12.40;8.17;;;14.30;99.90;;;;;;4172964;28;20214;-84
2022/10/15 00:15:54;;;;;;;12.37;7.93;;;14.30;99.90;;;;;;4175010;28;20215;-85
2022/10/15 00:17:56;;;;;;;14.27;8.33;;;14.30;99.90;;;;;;4170154;28;20235;-85
2022/10/15 00:19:58;;;;;;;12.50;8.10;;;14.20;99.90;;;;;;4159678;28;20752;-85
2022/10/15 00:22:01;;;;;;;14.63;8.07;;;14.30;99.90;;;;;;4164634;28;20218;-85
2022/10/15 00:24:04;;;;;;;9.90;7.23;;;14.20;99.90;;;;;;4177059;28;20583;-85
2022/10/15 00:26:09;;;;;;;11.70;7.80;;;14.20;99.90;;;;;;4163795;28;20211;-84
2022/10/15 00:28:11;;;;;;;13.23;8.23;;;14.20;99.90;;;;;;4152429;28;20282;-86
2022/10/15 00:30:13;;;;;;;10.57;7.43;;;14.50;99.90;;;;;;4171315;28;20205;-86
2022/10/15 00:32:15;;;;;;;12.50;7.63;;;14.20;99.90;;;;;;4176452;28;20220;-85
2022/10/15 00:34:17;;;;;;;10.80;7.53;;;14.20;99.90;;;;;;4169176;28;20252;-87
2022/10/15 00:36:21;;;;;;;10.87;7.03;;;14.20;99.90;;;;;;4168875;28;20291;-85
2022/10/15 00:38:24;;;;;;;10.90;7.40;;;14.40;99.90;;;;;;4170208;28;20244;-85
2022/10/15 00:40:26;;;;;;;11.10;7.13;;;14.20;99.90;;;;;;4177849;28;20248;-85
2022/10/15 00:42:28;;;;;;;13.53;8.27;;;14.20;99.90;;;;;;4177429;28;20217;-86
2022/10/15 00:44:49;;;;;;;9.97;7.30;;;14.20;99.90;;;;;;4172546;28;20232;-86
2022/10/15 00:46:53;;;;;;;10.67;7.17;;;14.30;99.90;;;;;;4171274;28;20826;-85
2022/10/15 00:48:58;;;;;;;13.43;7.03;;;14.40;99.90;;;;;;4154974;28;20208;-87
2022/10/15 00:51:04;;;;;;;11.90;7.40;;;14.20;99.90;;;;;;4159634;28;20285;-85
2022/10/15 00:53:09;;;;;;;12.67;7.57;;;14.20;99.90;;;;;;4161588;28;20256;-85
2022/10/15 00:55:17;;;;;;;9.53;6.60;;;14.20;99.90;;;;;;4151477;28;20211;-85
2022/10/15 00:57:20;;;;;;;11.43;6.83;;;14.20;99.90;;;;;;4156016;28;20706;-86
2022/10/15 00:59:26;;;;;;;10.97;6.83;;;14.20;99.90;;;;;;4177125;28;20197;-85
2022/10/15 01:01:28;;;;;;;12.03;7.03;;;14.20;99.90;;;;;;4156587;28;20242;-84
2022/10/15 01:03:30;;;;;;;11.03;6.83;;;14.20;99.90;;;;;;4155170;28;20251;-85
2022/10/15 01:05:33;;;;;;;9.63;6.40;;;14.20;99.90;;;;;;4170954;28;20220;-87
2022/10/15 01:07:35;;;;;;;8.40;5.80;;;14.30;99.90;;;;;;4171891;28;20234;-86
2022/10/15 01:09:38;;;;;;;9.10;5.83;;;14.30;99.90;;;;;;4179741;28;20889;-86
2022/10/15 01:11:45;;;;;;;8.90;6.17;;;14.30;99.90;;;;;;4167343;28;20252;-86
2022/10/15 01:13:59;;;;;;;10.03;5.90;;;14.30;99.90;;;;;;4155231;28;20213;-87
2022/10/15 01:16:08;;;;;;;9.80;6.30;;;14.30;99.90;;;;;;4159260;28;20239;-87
2022/10/15 01:18:15;;;;;;;10.10;5.90;;;14.30;99.90;;;;;;4154685;28;20237;-87
2022/10/15 01:20:59;;;;;;;7.80;5.50;;;14.30;99.90;;;;;;4159355;28;20213;-88
2022/10/15 01:23:19;;;;;;;6.97;4.97;;;14.30;99.90;;;;;;4156229;28;20223;-86
2022/10/15 01:25:34;;;;;;;5.63;4.30;;;14.30;99.90;;;;;;4166634;28;20194;-87
2022/10/15 01:27:41;;;;;;;6.97;4.80;;;14.30;99.90;;;;;;4176734;28;20212;-86
2022/10/15 01:29:58;;;;;;;8.40;5.13;;;14.30;99.90;;;;;;4158344;28;20215;-85
2022/10/15 01:32:08;;;;;;;7.37;4.67;;;14.40;99.90;;;;;;4164129;28;20254;-87
2022/10/15 01:34:19;;;;;;;9.70;4.97;;;14.30;99.90;;;;;;4161064;28;20206;-85
2022/10/15 01:36:32;;;;;;;8.53;4.70;;;14.30;99.90;;;;;;4164171;28;20217;-86
2022/10/15 01:38:45;;;;;;;7.73;4.97;;;14.30;99.90;;;;;;4170204;28;20227;-86
2022/10/15 01:40:51;;;;;;;7.03;4.80;;;14.30;99.90;;;;;;4161797;28;20236;-86
2022/10/15 01:42:57;;;;;;;6.93;4.80;;;14.30;99.90;;;;;;4185289;28;20215;-88
2022/10/15 01:45:05;;;;;;;7.63;4.83;;;14.30;99.90;;;;;;4181790;28;20199;-87
2022/10/15 01:47:14;;;;;;;7.67;5.27;;;14.40;99.90;;;;;;4181597;28;20204;-89
2022/10/15 01:49:20;;;;;;;7.57;4.33;;;14.40;99.90;;;;;;4161631;28;20208;-85
2022/10/15 01:51:24;;;;;;;6.23;4.50;;;14.30;99.90;;;;;;4161526;28;20266;-86
2022/10/15 01:53:27;;;;;;;5.83;4.40;;;14.40;99.90;;;;;;4179000;28;20203;-86
2022/10/15 01:55:31;;;;;;;5.57;3.80;;;14.30;99.90;;;;;;4165127;28;20271;-86
2022/10/15 01:57:34;;;;;;;7.17;4.77;;;14.40;99.90;;;;;;4164797;28;20203;-87
2022/10/15 01:59:39;;;;;;;6.83;4.70;;;14.40;99.90;;;;;;4174806;28;20236;-86
2022/10/15 02:01:43;;;;;;;7.00;4.73;;;14.40;99.90;;;;;;4178258;28;20233;-86
2022/10/15 02:03:48;;;;;;;7.30;4.77;;;14.30;99.90;;;;;;4173974;28;20207;-86
2022/10/15 02:05:56;;;;;;;5.47;4.13;;;14.40;99.90;;;;;;4155851;28;20220;-86
2022/10/15 02:08:07;;;;;;;5.90;4.43;;;14.40;99.90;;;;;;4159161;28;20291;-87
2022/10/15 02:10:15;;;;;;;6.63;4.50;;;14.40;99.90;;;;;;4159599;28;20217;-86
2022/10/15 02:12:30;;;;;;;7.37;5.13;;;14.40;99.90;;;;;;4162839;28;20227;-87
2022/10/15 02:14:38;;;;;;;7.33;4.73;;;14.40;99.90;;;;;;4167274;28;20224;-86
2022/10/15 02:16:46;;;;;;;6.00;4.60;;;14.40;99.90;;;;;;4160310;28;20215;-86
2022/10/15 02:18:57;;;;;;;7.70;4.90;;;14.40;99.90;;;;;;4153097;28;20231;-88
2022/10/15 02:21:01;;;;;;;7.73;5.07;;;14.40;99.90;;;;;;4152584;28;20282;-85
2022/10/15 02:23:10;;;;;;;8.60;5.20;;;14.40;99.90;;;;;;4164682;28;20220;-86
2022/10/15 02:25:14;;;;;;;7.10;4.73;;;14.30;99.90;;;;;;4161090;28;20222;-87
2022/10/15 02:27:18;;;;;;;9.87;5.13;;;14.50;99.90;;;;;;4161772;28;20219;-87
2022/10/15 02:29:23;;;;;;;6.70;5.03;;;14.40;99.90;;;;;;4153956;28;20287;-87
2022/10/15 02:31:29;;;;;;;6.97;4.50;;;14.40;99.90;;;;;;4163066;28;20234;-86
2022/10/15 02:33:33;;;;;;;8.53;4.97;;;14.40;99.90;;;;;;4161514;28;20229;-86
2022/10/15 02:35:37;;;;;;;6.80;4.70;;;14.40;99.90;;;;;;4170766;28;20264;-86
2022/10/15 02:37:44;;;;;;;6.97;4.70;;;14.40;99.90;;;;;;4174606;28;20204;-86
2022/10/15 02:39:46;;;;;;;8.50;5.07;;;14.40;99.90;;;;;;4168986;28;20248;-86
2022/10/15 02:41:50;;;;;;;6.73;4.93;;;14.50;99.90;;;;;;4176548;28;20235;-86
2022/10/15 02:43:52;;;;;;;8.30;5.27;;;14.40;99.90;;;;;;4157492;28;20256;-86
2022/10/15 02:45:54;;;;;;;6.13;4.40;;;14.40;99.90;;;;;;4162503;28;20271;-86
2022/10/15 02:47:56;;;;;;;7.73;4.70;;;14.40;99.90;;;;;;4164829;28;20216;-86
2022/10/15 02:49:58;;;;;;;6.23;4.60;;;14.40;99.90;;;;;;4162815;28;20208;-86
2022/10/15 02:52:01;;;;;;;6.57;5.00;;;14.40;99.90;;;;;;4157174;28;20213;-86
2022/10/15 02:54:06;;;;;;;8.93;4.50;;;14.40;99.90;;;;;;4164438;28;20318;-86
2022/10/15 02:56:08;;;;;;;6.70;4.03;;;14.40;99.90;;;;;;4158470;28;20209;-86
2022/10/15 02:58:10;;;;;;;7.47;4.33;;;14.40;99.90;;;;;;4159469;28;20212;-86
2022/10/15 03:00:13;;;;;;;6.97;4.30;;;14.40;99.90;;;;;;4172894;28;20217;-86
2022/10/15 03:02:15;;;;;;;6.17;4.50;;;14.40;99.90;;;;;;4156013;28;20685;-88
2022/10/15 03:04:17;;;;;;;7.70;4.80;;;14.50;99.90;;;;;;4154373;28;20762;-87
2022/10/15 03:06:19;;;;;;;7.83;5.10;;;14.40;99.90;;;;;;4164488;28;20237;-86
2022/10/15 03:08:23;;;;;;;6.63;4.40;;;14.40;99.90;;;;;;4164329;28;20206;-87
2022/10/15 03:10:26;;;;;;;6.23;4.30;;;14.40;99.90;;;;;;4167647;28;20286;-86
2022/10/15 03:12:28;;;;;;;6.37;4.80;;;14.40;99.90;;;;;;4166195;28;20217;-86
2022/10/15 03:14:30;;;;;;;6.93;4.60;;;14.40;99.90;;;;;;4179598;28;20208;-87
2022/10/15 03:16:32;;;;;;;4.83;3.93;;;14.20;99.90;;;;;;4165713;28;20645;-86
2022/10/15 03:18:34;;;;;;;5.80;4.30;;;14.30;99.90;;;;;;4183574;28;20238;-85
2022/10/15 03:20:36;;;;;;;6.03;4.40;;;14.30;99.90;;;;;;4175481;28;20709;-86
2022/10/15 03:22:38;;;;;;;6.33;4.93;;;14.40;99.90;;;;;;4159912;28;20207;-86
2022/10/15 03:24:41;;;;;;;6.33;4.10;;;14.30;99.90;;;;;;4175304;28;20300;-86
2022/10/15 03:26:43;;;;;;;9.37;4.47;;;14.40;99.90;;;;;;4147791;28;20206;-86
2022/10/15 03:28:45;;;;;;;5.50;4.23;;;14.30;99.90;;;;;;4166300;28;20671;-86
2022/10/15 03:30:47;;;;;;;5.57;3.93;;;14.30;99.90;;;;;;4155215;28;20308;-86
2022/10/15 03:32:49;;;;;;;6.80;3.77;;;14.30;99.90;;;;;;4166368;28;20655;-85
2022/10/15 03:34:51;;;;;;;5.23;4.17;;;14.30;99.90;;;;;;4157270;28;20213;-86
2022/10/15 03:36:53;;;;;;;8.10;4.30;;;14.30;99.90;;;;;;4173814;28;20317;-87
2022/10/15 03:38:55;;;;;;;6.43;4.40;;;14.30;99.90;;;;;;4166704;28;20770;-85
2022/10/15 03:40:58;;;;;;;6.10;3.90;;;14.30;99.90;;;;;;4160867;28;20299;-86
2022/10/15 03:43:01;;;;;;;5.87;4.37;;;14.30;99.90;;;;;;4173509;28;20840;-86
2022/10/15 03:45:03;;;;;;;5.77;3.93;;;14.40;99.90;;;;;;4165145;28;20216;-87
2022/10/15 03:47:05;;;;;;;5.90;3.87;;;14.30;99.90;;;;;;4164932;28;20199;-86
2022/10/15 03:49:07;;;;;;;5.23;3.73;;;14.30;99.90;;;;;;4168657;28;20220;-85
2022/10/15 03:51:09;;;;;;;5.47;3.20;;;14.40;99.90;;;;;;4159849;28;20274;-86
2022/10/15 03:53:13;;;;;;;4.37;3.40;;;14.40;99.90;;;;;;4170021;28;20228;-85
2022/10/15 03:55:15;;;;;;;4.93;3.47;;;14.30;99.90;;;;;;4149575;28;20223;-87
2022/10/15 03:57:18;;;;;;;5.47;3.50;;;14.30;99.90;;;;;;4151884;28;20237;-86
2022/10/15 03:59:20;;;;;;;4.23;3.57;;;14.30;99.90;;;;;;4153854;28;20805;-86
2022/10/15 04:01:22;;;;;;;5.33;3.50;;;14.30;99.90;;;;;;4162085;28;20278;-87
2022/10/15 04:03:25;;;;;;;5.87;3.50;;;14.30;99.90;;;;;;4158201;28;20310;-87
2022/10/15 04:05:27;;;;;;;5.73;3.50;;;14.10;99.90;;;;;;4156662;28;20304;-87
2022/10/15 04:07:29;;;;;;;5.03;3.20;;;14.30;99.90;;;;;;4158672;28;20217;-87
2022/10/15 04:09:31;;;;;;;4.20;3.40;;;14.30;99.90;;;;;;4178399;28;20294;-87
2022/10/15 04:11:33;;;;;;;7.77;3.23;;;14.30;99.90;;;;;;4166421;28;20236;-86
2022/10/15 04:13:37;;;;;;;4.73;3.27;;;14.40;99.90;;;;;;4194190;28;20228;-86
2022/10/15 04:15:39;;;;;;;7.20;3.50;;;14.30;99.90;;;;;;4185000;28;20203;-87
2022/10/15 04:17:41;;;;;;;3.80;2.87;;;14.20;99.90;;;;;;4172004;28;20225;-87
2022/10/15 04:19:43;;;;;;;4.30;3.00;;;14.30;99.90;;;;;;4158608;28;20236;-86
2022/10/15 04:21:45;;;;;;;4.93;3.33;;;14.30;99.90;;;;;;4170610;28;20319;-86
2022/10/15 04:23:47;;;;;;;5.80;3.83;;;14.30;99.90;;;;;;4156987;28;20213;-86
2022/10/15 04:25:49;;;;;;;3.93;3.27;;;14.20;99.90;;;;;;4169237;28;20802;-86
2022/10/15 04:27:52;;;;;;;5.43;3.40;;;14.20;99.90;;;;;;4163820;28;20227;-85
2022/10/15 04:29:55;;;;;;;3.73;3.03;;;14.20;99.90;;;;;;4164683;28;20219;-85
2022/10/15 04:31:57;;;;;;;5.23;3.13;;;14.20;99.90;;;;;;4170596;28;20277;-86
2022/10/15 04:33:59;;;;;;;4.27;3.17;;;14.20;99.90;;;;;;4155321;28;20216;-85
2022/10/15 04:36:02;;;;;;;4.13;3.07;;;14.20;99.90;;;;;;4152770;28;20675;-86
2022/10/15 04:38:04;;;;;;;4.90;3.50;;;14.20;99.90;;;;;;4154979;28;20220;-86
2022/10/15 04:40:08;;;;;;;5.73;3.40;;;14.20;99.90;;;;;;4162347;28;20237;-85
2022/10/15 04:42:10;;;;;;;6.57;3.10;;;14.20;99.90;;;;;;4179638;28;20203;-85
2022/10/15 04:44:12;;;;;;;4.17;3.27;;;14.20;99.90;;;;;;4168776;28;20209;-87
2022/10/15 04:46:16;;;;;;;5.00;3.20;;;14.20;99.90;;;;;;4176162;28;20217;-87
2022/10/15 04:48:18;;;;;;;4.47;3.50;;;14.20;99.90;;;;;;4195183;28;20191;-87
2022/10/15 04:50:20;;;;;;;5.03;3.53;;;14.20;99.90;;;;;;4179253;28;20292;-87
2022/10/15 04:52:22;;;;;;;4.70;3.20;;;14.50;99.90;;;;;;4178084;28;20279;-87
2022/10/15 04:54:24;;;;;;;5.30;3.40;;;14.20;99.90;;;;;;4189361;28;20510;-87
2022/10/15 04:56:26;;;;;;;4.57;3.50;;;14.20;99.90;;;;;;4169275;28;20196;-87
2022/10/15 04:58:30;;;;;;;4.43;3.13;;;14.20;99.90;;;;;;4178266;28;20206;-86
2022/10/15 05:00:32;;;;;;;4.63;3.20;;;14.20;99.90;;;;;;4174055;28;20236;-87
2022/10/15 05:02:35;;;;;;;5.60;3.07;;;14.20;99.90;;;;;;4165710;28;20208;-87
2022/10/15 05:04:37;;;;;;;4.83;3.20;;;14.20;99.90;;;;;;4192028;28;20275;-88
2022/10/15 05:06:39;;;;;;;3.93;2.80;;;14.20;99.90;;;;;;4185508;28;20221;-87
2022/10/15 05:08:42;;;;;;;3.60;2.80;;;14.20;99.90;;;;;;4191656;28;20208;-84
2022/10/15 05:10:44;;;;;;;6.43;3.20;;;14.20;99.90;;;;;;4182094;28;20231;-87
2022/10/15 05:12:46;;;;;;;3.53;2.73;;;14.20;99.90;;;;;;4178403;28;20286;-87
2022/10/15 05:14:51;;;;;;;4.67;2.87;;;14.20;99.90;;;;;;4163470;28;20277;-87
2022/10/15 05:16:53;;;;;;;3.27;2.33;;;14.40;99.90;;;;;;4158320;28;20260;-86
2022/10/15 05:19:00;;;;;;;3.70;2.67;;;14.20;99.90;;;;;;4160575;28;20215;-85
2022/10/15 05:21:02;;;;;;;4.00;2.23;;;14.20;99.90;;;;;;4160767;28;20262;-85
2022/10/15 05:23:05;;;;;;;6.00;3.30;;;14.20;99.90;;;;;;4158332;28;20217;-85
2022/10/15 05:25:07;;;;;;;3.63;2.70;;;14.20;99.90;;;;;;4157720;28;20587;-88
2022/10/15 05:27:09;;;;;;;3.13;2.37;;;14.20;99.90;;;;;;4174341;28;20692;-87
2022/10/15 05:29:11;;;;;;;3.60;2.63;;;14.20;99.90;;;;;;4159258;28;20780;-86
2022/10/15 05:31:15;;;;;;;3.10;2.27;;;14.20;99.90;;;;;;4163158;28;20319;-86
2022/10/15 05:33:17;;;;;;;4.07;2.43;;;14.20;99.90;;;;;;4156165;28;20224;-86
2022/10/15 05:35:21;;;;;;;2.83;2.30;;;14.20;99.90;;;;;;4163256;28;20770;-86
2022/10/15 05:37:24;;;;;;;3.23;2.20;;;14.20;99.90;;;;;;4180762;28;20227;-86
2022/10/15 05:39:25;;;;;;;2.23;2.00;;;14.20;99.90;;;;;;4180568;28;20227;-87
2022/10/15 05:41:28;;;;;;;2.93;2.10;;;14.30;99.90;;;;;;4179004;28;20228;-85
2022/10/15 05:43:30;;;;;;;2.93;2.20;;;14.30;99.90;;;;;;4172657;28;20573;-85
2022/10/15 05:45:32;;;;;;;4.40;2.30;;;14.30;99.90;;;;;;4161694;28;20611;-87
2022/10/15 05:47:35;;;;;;;3.43;2.20;;;14.30;99.90;;;;;;4177632;28;20221;-85
2022/10/15 05:49:36;;;;;;;3.87;2.60;;;14.30;99.90;;;;;;4160648;28;20200;-85
2022/10/15 05:51:40;;;;;;;3.70;2.73;;;14.30;99.90;;;;;;4155450;28;20232;-85
2022/10/15 05:53:45;;;;;;;5.10;2.53;;;14.30;99.90;;;;;;4154625;28;20215;-86
2022/10/15 05:55:46;;;;;;;3.33;2.30;;;14.30;99.90;;;;;;4152032;28;20313;-85
2022/10/15 05:57:49;;;;;;;4.40;2.40;;;14.30;99.90;;;;;;4160957;28;20847;-85
2022/10/15 05:59:50;;;;;;;3.97;2.83;;;14.30;99.90;;;;;;4168492;28;20252;-85
2022/10/15 06:01:52;;;;;;;3.50;2.30;;;14.20;99.90;;;;;;4154307;28;20627;-87
2022/10/15 06:03:54;;;;;;;2.87;2.40;;;14.30;99.90;;;;;;4151184;28;20278;-85
2022/10/15 06:05:56;;;;;;;3.50;2.30;;;14.30;99.90;;;;;;4150973;28;20278;-85
2022/10/15 06:08:00;;;;;;;3.63;2.50;;;14.30;99.90;;;;;;4159474;28;20214;-87
2022/10/15 06:10:02;;;;;;;3.73;2.63;;;14.30;99.90;;;;;;4170299;28;20550;-85
2022/10/15 06:12:04;;;;;;;3.33;2.33;;;14.30;99.90;;;;;;4168166;28;20265;-86
2022/10/15 06:14:06;;;;;;;5.10;2.53;;;14.30;99.90;;;;;;4170343;28;20289;-86
2022/10/15 06:16:09;;;;;;;2.57;2.30;;;14.40;99.90;;;;;;4154886;28;20219;-85
2022/10/15 06:18:14;;;;;;;2.40;2.17;;;14.40;99.90;;;;;;4164104;28;20236;-85
2022/10/15 06:20:16;;;;;;;3.37;2.53;;;14.40;99.90;;;;;;4157679;28;20221;-85
2022/10/15 06:22:19;;;;;;;2.77;1.90;;;14.40;99.90;;;;;;4176605;28;20396;-85
2022/10/15 06:24:22;;;;;;;2.80;2.37;;;14.40;99.90;;;;;;4157345;28;20223;-85
2022/10/15 06:26:24;;;;;;;3.57;2.43;;;14.40;99.90;;;;;;4158041;28;20550;-84
2022/10/15 06:28:26;;;;;;;2.27;1.90;;;14.50;99.90;;;;;;4157041;28;20215;-84
2022/10/15 06:30:29;;;;;;;2.90;2.00;;;14.50;99.90;;;;;;4175180;28;20254;-85
2022/10/15 06:32:31;;;;;;;2.60;2.10;;;14.50;99.90;;;;;;4170080;28;20204;-85
2022/10/15 06:34:33;;;;;;;2.30;1.80;;;14.40;99.90;;;;;;4179468;28;20332;-83
2022/10/15 06:36:35;;;;;;;2.83;1.93;;;14.50;99.90;;;;;;4153386;28;20218;-84
2022/10/15 06:38:38;;;;;;;2.43;1.73;;;14.50;99.90;;;;;;4153959;28;20216;-86
2022/10/15 06:40:41;;;;;;;3.43;2.20;;;14.50;99.90;;;;;;4165088;28;20237;-84
2022/10/15 06:42:43;;;;;;;2.83;1.90;;;14.60;99.90;;;;;;4155453;28;20709;-86
2022/10/15 06:44:45;;;;;;;2.63;2.07;;;14.50;99.90;;;;;;4153879;28;20736;-86
2022/10/15 06:46:47;;;;;;;3.27;2.00;;;14.80;99.90;;;;;;4154353;28;20216;-85
2022/10/15 06:48:50;;;;;;;2.60;1.80;;;14.70;99.90;;;;;;4157251;28;20209;-86
2022/10/15 06:50:52;;;;;;;4.37;2.40;;;14.60;99.90;;;;;;4156696;28;20246;-85
2022/10/15 06:52:54;;;;;;;2.77;1.97;;;14.70;99.90;;;;;;4164677;28;20277;-85
2022/10/15 06:54:56;;;;;;;2.50;1.60;;;14.70;99.90;;;;;;4168027;28;20202;-85
2022/10/15 06:57:00;;;;;;;2.33;1.70;;;14.70;99.90;;;;;;4158391;28;20341;-86
2022/10/15 06:59:01;;;;;;;2.47;2.00;;;14.80;99.90;;;;;;4175633;28;20206;-85
2022/10/15 07:01:06;;;;;;;3.03;1.90;;;14.80;99.90;;;;;;4173804;28;20275;-84
2022/10/15 07:03:08;;;;;;;2.93;1.80;;;14.80;99.90;;;;;;4162107;28;20204;-84
2022/10/15 07:05:10;;;;;;;2.40;1.80;;;14.80;99.90;;;;;;4165643;28;20217;-85
2022/10/15 07:07:12;;;;;;;4.43;2.37;;;14.80;99.90;;;;;;4174962;28;20275;-84
2022/10/15 07:09:14;;;;;;;2.87;2.00;;;14.80;99.90;;;;;;4193983;28;20215;-85
2022/10/15 07:11:17;;;;;;;2.67;1.90;;;14.80;99.90;;;;;;4185645;28;20233;-85
2022/10/15 07:13:20;;;;;;;2.37;1.70;;;14.80;99.90;;;;;;4170702;28;20240;-83
2022/10/15 07:15:22;;;;;;;3.30;2.30;;;15.00;99.90;;;;;;4164836;28;20217;-83
2022/10/15 07:17:24;;;;;;;3.27;2.40;;;14.80;99.90;;;;;;4179189;28;20275;-83
2022/10/15 07:19:27;;;;;;;3.67;2.30;;;14.90;99.90;;;;;;4165749;28;20212;-83
2022/10/15 07:21:29;;;;;;;2.67;2.07;;;14.90;99.90;;;;;;4160185;28;20319;-85
2022/10/15 07:23:31;;;;;;;4.93;2.23;;;14.90;99.90;;;;;;4182905;28;20282;-85
2022/10/15 07:25:33;;;;;;;2.90;2.20;;;14.90;99.90;;;;;;4165493;28;20288;-86
2022/10/15 07:27:35;;;;;;;4.10;2.50;;;14.90;99.90;;;;;;4166781;28;20216;-85
2022/10/15 07:29:38;;;;;;;4.23;2.50;;;15.00;99.90;;;;;;4168767;28;20236;-83
2022/10/15 07:31:40;;;;;;;4.73;2.90;;;15.00;99.90;;;;;;4164453;28;20284;-82
2022/10/15 07:33:43;;;;;;;13.93;6.93;;;15.00;99.90;;;;;;4160043;28;20206;-85
2022/10/15 07:35:45;;;;;;;12.90;7.20;;;15.00;99.90;;;;;;4173755;28;20222;-82
2022/10/15 07:37:49;;;;;;;8.07;5.37;;;15.10;99.90;;;;;;4158609;28;20249;-83
2022/10/15 07:39:51;;;;;;;7.37;4.20;;;15.10;99.90;;;;;;4154225;28;20246;-86
2022/10/15 07:41:53;;;;;;;6.00;3.83;;;15.10;99.90;;;;;;4159959;28;20261;-85
2022/10/15 07:43:55;;;;;;;5.60;3.20;;;15.10;99.90;;;;;;4159986;28;20207;-85
2022/10/15 07:45:58;;;;;;;6.00;2.63;;;15.20;99.90;;;;;;4161315;28;20218;-85
2022/10/15 07:48:00;;;;;;;3.73;2.40;;;15.30;99.90;;;;;;4174083;28;20267;-85
2022/10/15 07:50:02;;;;;;;4.53;2.37;;;15.20;99.90;;;;;;4154590;28;20266;-83
2022/10/15 07:52:07;;;;;;;3.10;2.53;;;15.20;99.90;;;;;;4152530;28;20238;-83
2022/10/15 07:54:09;;;;;;;4.07;2.30;;;15.30;99.90;;;;;;4163099;28;20222;-84
2022/10/15 07:56:12;;;;;;;4.80;2.50;;;15.30;99.90;;;;;;4162501;28;20212;-83
2022/10/15 07:58:14;;;;;;;3.17;2.60;;;15.30;99.90;;;;;;4158326;28;20646;-85
2022/10/15 08:00:16;;;;;;;3.43;2.30;;;15.40;99.90;;;;;;4158716;28;20229;-85
2022/10/15 08:02:21;;;;;;;2.90;2.33;;;15.40;99.90;;;;;;4159435;28;20269;-84
2022/10/15 08:04:23;;;;;;;5.00;2.20;;;15.50;99.90;;;;;;4160294;28;20207;-85
2022/10/15 08:06:25;;;;;;;3.17;2.10;;;15.50;99.90;;;;;;4176785;28;20210;-83
2022/10/15 08:08:27;;;;;;;2.50;1.77;;;15.50;99.90;;;;;;4155415;28;20213;-83
2022/10/15 08:10:29;;;;;;;2.30;1.80;;;15.50;99.90;;;;;;4171129;28;20306;-83
2022/10/15 08:12:31;;;;;;;4.57;2.13;;;15.50;99.90;;;;;;4152833;28;20215;-82
2022/10/15 08:14:33;;;;;;;2.53;2.10;;;15.60;99.90;;;;;;4175441;28;20230;-83
2022/10/15 08:16:35;;;;;;;3.70;2.57;;;15.60;99.90;;;;;;4175784;28;20198;-81
2022/10/15 08:18:39;;;;;;;4.67;3.03;;;15.60;99.90;;;;;;4174366;28;20218;-82
2022/10/15 08:20:41;;;;;;;3.60;2.70;;;15.60;99.90;;;;;;4162566;28;20293;-84
2022/10/15 08:22:43;;;;;;;3.07;2.50;;;15.60;99.90;;;;;;4155815;28;20210;-83
2022/10/15 08:24:45;;;;;;;4.13;2.37;;;15.60;99.90;;;;;;4160298;28;20250;-85
2022/10/15 08:26:48;;;;;;;2.80;1.93;;;15.60;99.90;;;;;;4169043;28;20206;-83
2022/10/15 08:28:50;;;;;;;3.63;2.20;;;15.70;99.90;;;;;;4169029;28;20649;-84
2022/10/15 08:30:52;;;;;;;3.47;1.90;;;15.70;99.90;;;;;;4160766;28;20230;-84
2022/10/15 08:32:54;;;;;;;3.53;2.00;;;15.60;99.90;;;;;;4158231;28;20215;-85
2022/10/15 08:34:57;;;;;;;1.87;1.63;;;15.60;99.90;;;;;;4167008;28;20213;-82
2022/10/15 08:36:59;;;;;;;2.53;1.87;;;15.70;99.90;;;;;;4162998;28;20229;-83
2022/10/15 08:39:05;;;;;;;3.13;2.17;;;15.70;99.90;;;;;;4163347;28;20554;-83
2022/10/15 08:41:22;;;;;;;2.60;1.93;;;15.80;99.90;;;;;;4162485;28;20230;-83
2022/10/15 08:43:29;;;;;;;2.90;1.80;;;15.80;99.90;;;;;;4163231;28;20213;-82
2022/10/15 08:45:35;;;;;;;3.90;2.17;;;15.90;99.90;;;;;;4185299;28;20199;-83
2022/10/15 08:47:42;;;;;;;2.63;1.90;;;15.90;99.90;;;;;;4181096;28;20260;-83
2022/10/15 08:49:47;;;;;;;3.20;1.90;;;16.00;99.90;;;;;;4156221;28;20204;-82
2022/10/15 08:51:55;;;;;;;2.50;1.90;;;16.10;99.90;;;;;;4158716;28;21129;-82
2022/10/15 08:54:00;;;;;;;2.83;1.87;;;16.10;99.90;;;;;;4176600;28;20206;-83
2022/10/15 08:56:12;;;;;;;3.50;2.03;;;16.20;99.90;;;;;;4166915;28;20720;-83
2022/10/15 08:58:19;;;;;;;2.50;1.77;;;16.30;99.90;;;;;;4159820;28;20694;-82
2022/10/15 09:00:23;;;;;;;3.13;1.87;;;16.30;99.90;;;;;;4163130;28;20211;-82
2022/10/15 09:02:31;;;;;;;3.47;1.80;;;16.40;99.90;;;;;;4164225;28;20218;-82
2022/10/15 09:04:42;;;;;;;3.57;2.40;;;16.40;99.90;;;;;;4151974;28;20683;-86
2022/10/15 09:06:44;;;;;;;3.47;2.33;;;16.50;99.90;;;;;;4179975;28;20191;-86
2022/10/15 09:08:57;;;;;;;3.37;2.60;;;16.40;99.90;;;;;;4161350;28;20223;-86
2022/10/15 09:11:05;;;;;;;2.57;1.80;;;16.60;99.90;;;;;;4158705;28;20236;-84
2022/10/15 09:13:12;;;;;;;2.20;1.60;;;16.70;99.90;;;;;;4163436;28;20218;-84
2022/10/15 09:15:18;;;;;;;1.93;1.57;;;16.70;99.90;;;;;;4189240;22;20295;-78
2022/10/15 09:17:25;;;;;;;2.90;1.30;;;16.80;99.90;;;;;;4169712;28;20203;-78
2022/10/15 09:19:29;;;;;;;2.47;1.60;;;16.80;99.90;;;;;;4154724;28;20278;-78
2022/10/15 09:21:32;;;;;;;1.80;1.50;;;16.90;99.90;;;;;;4174766;28;20271;-79
2022/10/15 09:23:35;;;;;;;2.50;1.60;;;16.90;99.90;;;;;;4175159;28;20238;-79
2022/10/15 09:25:43;;;;;;;1.73;1.40;;;16.90;99.90;;;;;;4172919;28;20628;-79
2022/10/15 09:27:47;;;;;;;1.37;1.20;;;16.90;99.90;;;;;;4162558;28;20604;-79
2022/10/15 09:29:53;;;;;;;2.33;1.30;;;17.00;99.90;;;;;;4172139;28;20573;-79
2022/10/15 09:32:04;;;;;;;2.23;1.30;;;17.10;99.90;;;;;;4155226;28;20228;-79
2022/10/15 09:34:16;;;;;;;2.03;1.70;;;17.10;99.90;;;;;;4166400;28;20662;-79
2022/10/15 09:36:33;;;;;;;3.13;2.07;;;17.20;99.90;;;;;;4170297;28;20210;-79
2022/10/15 09:38:40;;;;;;;3.47;2.07;;;17.20;99.90;;;;;;4153375;28;20246;-79
2022/10/15 09:40:59;;;;;;;2.53;1.73;;;17.20;99.90;;;;;;4172290;28;20240;-80
2022/10/15 09:43:02;;;;;;;2.20;1.60;;;17.30;99.90;;;;;;4154547;28;20199;-77
2022/10/15 09:45:07;;;;;;;1.73;1.40;;;17.30;99.90;;;;;;4171547;28;20234;-78
2022/10/15 09:47:17;;;;;;;1.53;1.20;;;17.40;99.90;;;;;;4154762;28;20210;-79
2022/10/15 09:49:23;;;;;;;1.60;1.23;;;17.40;99.90;;;;;;4161213;28;20751;-79
2022/10/15 09:51:30;;;;;;;1.67;1.40;;;17.40;99.90;;;;;;4163430;28;20867;-79
2022/10/15 09:53:44;;;;;;;1.07;0.97;;;17.50;99.90;;;;;;4155843;28;20253;-79
2022/10/15 09:55:56;;;;;;;1.57;1.20;;;17.50;99.90;;;;;;4161040;28;20233;-78
2022/10/15 09:58:06;;;;;;;1.70;0.93;;;17.60;99.90;;;;;;4175376;28;20239;-82
2022/10/15 10:00:12;;;;;;;0.93;0.83;;;17.60;99.90;;;;;;4177537;28;20576;-80
2022/10/15 10:02:19;;;;;;;1.10;1.00;;;17.60;99.90;;;;;;4165764;28;20234;-80
2022/10/15 10:04:21;;;;;;;1.30;0.90;;;17.60;99.90;;;;;;4174886;28;20255;-80
2022/10/15 10:06:24;;;;;;;1.40;0.90;;;17.70;99.90;;;;;;4164363;28;20227;-79
2022/10/15 10:08:29;;;;;;;2.13;1.10;;;17.70;99.90;;;;;;4171726;28;20810;-79
2022/10/15 10:10:31;;;;;;;0.97;0.87;;;17.70;99.90;;;;;;4160230;28;20210;-79
2022/10/15 10:12:36;;;;;;;1.67;0.70;;;17.70;99.90;;;;;;4163743;28;20216;-79
2022/10/15 10:14:44;;;;;;;0.60;0.60;;;17.70;99.90;;;;;;4169895;28;20275;-79
2022/10/15 10:17:05;;;;;;;0.60;0.60;;;17.70;99.90;;;;;;4161067;28;20299;-79
2022/10/15 10:19:13;;;;;;;0.60;0.60;;;17.80;99.90;;;;;;4157174;28;20210;-79
2022/10/15 10:21:23;;;;;;;0.60;0.60;;;17.80;99.90;;;;;;4176101;28;20248;-81
2022/10/15 10:23:33;;;;;;;1.13;0.70;;;17.80;99.90;;;;;;4157871;28;20251;-82
2022/10/15 10:25:41;;;;;;;0.80;0.60;;;17.80;99.90;;;;;;4157358;28;20296;-83
2022/10/15 10:27:46;;;;;;;0.60;0.60;;;17.90;99.90;;;;;;4158822;28;21364;-83
2022/10/15 10:29:52;;;;;;;0.77;0.60;;;17.90;99.90;;;;;;4154640;28;20237;-80
2022/10/15 10:31:54;;;;;;;0.57;0.50;;;17.90;99.90;;;;;;4153771;28;20200;-81
2022/10/15 10:34:00;;;;;;;1.00;0.60;;;18.00;99.90;;;;;;4150652;28;20210;-80
2022/10/15 10:36:03;;;;;;;0.80;0.67;;;18.00;99.90;;;;;;4152976;28;20328;-80
2022/10/15 10:38:05;;;;;;;1.13;0.60;;;18.10;99.90;;;;;;4169328;28;20226;-82
2022/10/15 10:40:22;;;;;;;0.67;0.60;;;18.10;99.90;;;;;;4162747;28;20264;-82
2022/10/15 10:42:30;;;;;;;0.87;0.60;;;18.20;99.90;;;;;;4174242;28;20237;-81
2022/10/15 10:44:35;;;;;;;1.47;0.70;;;18.20;99.90;;;;;;4159607;28;20236;-81
2022/10/15 10:46:37;;;;;;;1.27;1.00;;;18.30;99.90;;;;;;4157622;28;20202;-81